createdAt,value
2023-09-06T00:01:43.837Z,100458.16
2023-09-06T00:04:10.616Z,100463.59
2023-09-06T00:06:37.297Z,100453.50
2023-09-06T00:09:04.769Z,100446.31
2023-09-06T00:11:31.754Z,100449.75
2023-09-06T00:13:58.415Z,100462.09
2023-09-06T00:16:24.996Z,100448.53
2023-09-06T00:18:51.714Z,100452.25
2023-09-06T00:21:18.690Z,100458.34
2023-09-06T00:23:45.187Z,100452.47
2023-09-06T00:26:11.679Z,100453.00
2023-09-06T00:28:39.999Z,100453.41
2023-09-06T00:31:06.879Z,100453.41
2023-09-06T00:33:35.953Z,100449.38
2023-09-06T00:36:07.728Z,100446.22
2023-09-06T00:38:34.329Z,100451.16
2023-09-06T00:41:00.871Z,100453.78
2023-09-06T00:43:27.419Z,100435.38
2023-09-06T00:45:54.851Z,100448.16
2023-09-06T00:48:22.960Z,100456.22
2023-09-06T00:50:55.570Z,100448.16
2023-09-06T00:53:23.514Z,100459.28
2023-09-06T00:55:50.418Z,100456.56
2023-09-06T00:58:19.181Z,100448.91
2023-09-06T01:00:50.391Z,100433.13
2023-09-06T01:03:18.014Z,100444.25
2023-09-06T01:06:05.821Z,100448.38
2023-09-06T01:08:56.863Z,100455.75
2023-09-06T01:11:26.544Z,100452.75
2023-09-06T01:13:54.042Z,100454.13
2023-09-06T01:16:30.384Z,100447.59
2023-09-06T01:18:58.150Z,100455.53
2023-09-06T01:21:26.503Z,100451.81
2023-09-06T01:23:54.533Z,100449.47
2023-09-06T01:26:21.525Z,100447.94
2023-09-06T01:28:50.632Z,100455.22
2023-09-06T01:31:18.093Z,100452.00
2023-09-06T01:33:44.888Z,100461.25
2023-09-06T01:36:11.582Z,100452.44
2023-09-06T01:38:38.165Z,100459.44
2023-09-06T01:41:05.341Z,100452.88
2023-09-06T01:43:32.732Z,100453.44
2023-09-06T01:45:59.528Z,100454.16
2023-09-06T01:48:26.516Z,100445.66
2023-09-06T01:50:55.100Z,100457.50
2023-09-06T01:53:23.761Z,100450.59
2023-09-06T01:55:51.367Z,100460.22
2023-09-06T01:58:17.795Z,100458.53
2023-09-06T02:00:46.490Z,100454.47
2023-09-06T02:03:15.648Z,100458.75
2023-09-06T02:05:42.911Z,100454.56
2023-09-06T02:08:09.536Z,100452.22
2023-09-06T02:10:36.127Z,100455.59
2023-09-06T02:13:03.111Z,100455.59
2023-09-06T02:15:31.674Z,100451.94
2023-09-06T02:17:58.608Z,100446.06
2023-09-06T02:20:26.875Z,100452.47
2023-09-06T02:22:58.487Z,100454.63
2023-09-06T02:25:30.371Z,100444.81
2023-09-06T02:27:57.846Z,100449.09
2023-09-06T02:30:24.496Z,100441.28
2023-09-06T02:32:51.541Z,100442.38
2023-09-06T02:35:18.099Z,100439.47
2023-09-06T02:37:44.734Z,100448.94
2023-09-06T02:40:15.304Z,100442.56
2023-09-06T02:42:42.325Z,100439.31
2023-09-06T02:45:13.227Z,100445.56
2023-09-06T02:47:49.463Z,100429.09
2023-09-06T02:50:26.460Z,100450.69
2023-09-06T02:52:57.722Z,100445.31
2023-09-06T02:55:25.219Z,100447.56
2023-09-06T02:57:52.757Z,100442.66
2023-09-06T03:00:25.910Z,100439.19
2023-09-06T03:03:00.481Z,100456.56
2023-09-06T03:05:28.464Z,100444.59
2023-09-06T03:07:55.444Z,100451.34
2023-09-06T03:10:24.319Z,100447.94
2023-09-06T03:12:56.270Z,100449.50
2023-09-06T03:15:31.156Z,100454.94
2023-09-06T03:17:59.961Z,100450.59
2023-09-06T03:20:34.136Z,100455.66
2023-09-06T03:23:18.480Z,100454.97
2023-09-06T03:25:55.349Z,100447.22
2023-09-06T03:28:23.335Z,100440.50
2023-09-06T03:30:50.487Z,100455.03
2023-09-06T03:33:17.167Z,100444.41
2023-09-06T03:35:46.979Z,100451.97
2023-09-06T03:38:17.192Z,100459.75
2023-09-06T03:40:44.802Z,100458.75
2023-09-06T03:43:18.620Z,100459.44
2023-09-06T03:45:52.554Z,100458.63
2023-09-06T03:48:21.752Z,100462.88
2023-09-06T03:50:53.203Z,100455.31
2023-09-06T03:53:20.080Z,100462.22
2023-09-06T03:55:47.943Z,100461.56
2023-09-06T03:58:14.790Z,100463.94
2023-09-06T04:00:44.539Z,100460.72
2023-09-06T04:03:13.736Z,100465.63
2023-09-06T04:05:42.159Z,100459.88
2023-09-06T04:08:10.036Z,100457.03
2023-09-06T04:10:45.543Z,100471.41
2023-09-06T04:13:14.255Z,100463.13
2023-09-06T04:15:43.765Z,100467.16
2023-09-06T04:18:11.959Z,100473.09
2023-09-06T04:20:40.448Z,100479.34
2023-09-06T04:23:09.761Z,100462.97
2023-09-06T04:25:42.984Z,100476.44
2023-09-06T04:28:11.101Z,100475.97
2023-09-06T04:30:38.830Z,100479.34
2023-09-06T04:33:11.471Z,100482.19
2023-09-06T04:35:40.371Z,100492.16
2023-09-06T04:38:10.891Z,100489.63
2023-09-06T04:40:39.061Z,100494.03
2023-09-06T04:43:07.212Z,100495.88
2023-09-06T04:45:33.998Z,100496.22
2023-09-06T04:48:00.854Z,100491.19
2023-09-06T04:50:28.474Z,100490.00
2023-09-06T04:52:55.277Z,100501.44
2023-09-06T04:55:21.886Z,100490.47
2023-09-06T04:57:49.008Z,100499.88
2023-09-06T05:00:20.008Z,100499.50
2023-09-06T05:02:47.941Z,100499.47
2023-09-06T05:05:16.458Z,100497.94
2023-09-06T05:07:43.310Z,100503.47
2023-09-06T05:10:13.387Z,100496.34
2023-09-06T05:12:40.324Z,100495.28
2023-09-06T05:15:08.138Z,100494.56
2023-09-06T05:17:35.773Z,100496.50
2023-09-06T05:20:29.120Z,100498.63
2023-09-06T05:23:07.400Z,100500.03
2023-09-06T05:25:34.835Z,100498.13
2023-09-06T05:28:05.844Z,100505.06
2023-09-06T05:30:35.861Z,100498.06
2023-09-06T05:33:02.511Z,100486.41
2023-09-06T05:35:29.174Z,100499.44
2023-09-06T05:37:55.923Z,100513.13
2023-09-06T05:40:24.534Z,100510.34
2023-09-06T05:42:52.167Z,100510.53
2023-09-06T05:45:20.668Z,100514.44
2023-09-06T05:47:48.091Z,100512.47
2023-09-06T05:50:15.233Z,100520.41
2023-09-06T05:52:42.003Z,100504.19
2023-09-06T05:55:09.424Z,100507.56
2023-09-06T05:57:36.177Z,100512.03
2023-09-06T06:00:05.214Z,100509.47
2023-09-06T06:02:32.975Z,100512.97
2023-09-06T06:04:59.687Z,100508.09
2023-09-06T06:07:26.320Z,100501.78
2023-09-06T06:09:55.452Z,100501.44
2023-09-06T06:12:23.909Z,100503.00
2023-09-06T06:14:52.994Z,100508.09
2023-09-06T06:17:19.781Z,100520.13
2023-09-06T06:19:48.620Z,100519.75
2023-09-06T06:22:15.212Z,100513.13
2023-09-06T06:24:47.095Z,100517.38
2023-09-06T06:27:14.629Z,100511.97
2023-09-06T06:29:41.410Z,100519.75
2023-09-06T06:32:08.649Z,100517.72
2023-09-06T06:34:40.192Z,100528.06
2023-09-06T06:37:08.270Z,100526.22
2023-09-06T06:39:34.808Z,100527.97
2023-09-06T06:42:01.371Z,100526.94
2023-09-06T06:44:27.860Z,100529.25
2023-09-06T06:46:54.421Z,100522.78
2023-09-06T06:49:21.074Z,100532.88
2023-09-06T06:51:47.652Z,100539.84
2023-09-06T06:54:17.122Z,100539.22
2023-09-06T06:56:43.749Z,100541.97
2023-09-06T06:59:11.204Z,100539.28
2023-09-06T07:01:38.012Z,100536.56
2023-09-06T07:04:07.704Z,100536.78
2023-09-06T07:06:35.315Z,100537.81
2023-09-06T07:09:04.906Z,100541.00
2023-09-06T07:11:32.639Z,100538.88
2023-09-06T07:13:59.237Z,100533.59
2023-09-06T07:16:27.614Z,100536.34
2023-09-06T07:18:56.051Z,100524.78
2023-09-06T07:21:22.553Z,100524.16
2023-09-06T07:23:49.136Z,100527.50
2023-09-06T07:26:15.778Z,100531.25
2023-09-06T07:28:45.102Z,100527.22
2023-09-06T07:31:12.775Z,100532.22
2023-09-06T07:33:39.908Z,100527.56
2023-09-06T07:36:07.238Z,100520.16
2023-09-06T07:38:34.234Z,100522.22
2023-09-06T07:41:02.606Z,100520.50
2023-09-06T07:43:30.232Z,100525.06
2023-09-06T07:45:58.010Z,100536.56
2023-09-06T07:48:33.008Z,100530.38
2023-09-06T07:51:00.572Z,100528.59
2023-09-06T07:53:27.795Z,100528.91
2023-09-06T07:55:56.453Z,100538.09
2023-09-06T07:58:23.933Z,100527.91
2023-09-06T08:00:59.150Z,100537.28
2023-09-06T08:03:29.218Z,100536.53
2023-09-06T08:05:56.899Z,100539.13
2023-09-06T08:08:23.684Z,100539.41
2023-09-06T08:10:50.336Z,100530.66
2023-09-06T08:13:16.868Z,100540.94
2023-09-06T08:15:43.503Z,100539.09
2023-09-06T08:18:10.175Z,100535.88
2023-09-06T08:20:36.922Z,100535.25
2023-09-06T08:23:05.261Z,100540.88
2023-09-06T08:25:32.284Z,100525.91
2023-09-06T08:27:58.754Z,100542.03
2023-09-06T08:30:25.363Z,100529.53
2023-09-06T08:32:52.554Z,100539.97
2023-09-06T08:35:19.209Z,100539.25
2023-09-06T08:37:48.722Z,100532.41
2023-09-06T08:40:17.118Z,100539.22
2023-09-06T08:42:45.429Z,100532.13
2023-09-06T08:45:12.455Z,100536.81
2023-09-06T08:47:42.758Z,100543.06
2023-09-06T08:50:11.092Z,100538.19
2023-09-06T08:52:40.879Z,100526.69
2023-09-06T08:55:10.957Z,100525.69
2023-09-06T08:57:42.873Z,100527.56
2023-09-06T09:00:11.245Z,100526.53
2023-09-06T09:02:39.072Z,100525.47
2023-09-06T09:05:19.050Z,100527.38
2023-09-06T09:07:58.008Z,100524.53
2023-09-06T09:10:27.631Z,100527.28
2023-09-06T09:12:56.885Z,100521.50
2023-09-06T09:15:27.198Z,100528.06
2023-09-06T09:18:00.581Z,100523.78
2023-09-06T09:20:29.254Z,100526.75
2023-09-06T09:23:04.802Z,100524.09
2023-09-06T09:25:33.810Z,100518.44
2023-09-06T09:28:00.880Z,100528.25
2023-09-06T09:30:31.970Z,100525.31
2023-09-06T09:33:01.192Z,100528.00
2023-09-06T09:35:28.172Z,100521.22
2023-09-06T09:37:55.078Z,100517.41
2023-09-06T09:40:27.530Z,100515.88
2023-09-06T09:43:03.310Z,100515.59
2023-09-06T09:45:37.393Z,100503.50
2023-09-06T09:48:04.315Z,100504.59
2023-09-06T09:50:34.398Z,100505.97
2023-09-06T09:53:15.244Z,100509.88
2023-09-06T09:55:48.242Z,100506.22
2023-09-06T09:58:15.985Z,100500.97
2023-09-06T10:00:43.518Z,100499.78
2023-09-06T10:03:11.191Z,100492.00
2023-09-06T10:05:39.391Z,100495.03
2023-09-06T10:08:10.513Z,100488.53
2023-09-06T10:10:41.602Z,100478.25
2023-09-06T10:13:11.039Z,100490.69
2023-09-06T10:15:39.252Z,100474.50
2023-09-06T10:18:07.950Z,100471.97
2023-09-06T10:20:36.841Z,100471.97
2023-09-06T10:23:07.141Z,100476.09
2023-09-06T10:25:41.047Z,100472.59
2023-09-06T10:28:08.793Z,100476.09
2023-09-06T10:30:46.713Z,100474.34
2023-09-06T10:33:32.506Z,100480.28
2023-09-06T10:36:04.650Z,100476.59
2023-09-06T10:38:32.063Z,100471.78
2023-09-06T10:40:58.571Z,100467.00
2023-09-06T10:43:29.872Z,100468.38
2023-09-06T10:45:59.639Z,100464.44
2023-09-06T10:48:26.783Z,100469.22
2023-09-06T10:51:14.120Z,100468.56
2023-09-06T10:53:48.575Z,100457.56
2023-09-06T10:56:15.114Z,100438.78
2023-09-06T10:58:41.650Z,100465.88
2023-09-06T11:01:14.113Z,100457.69
2023-09-06T11:03:48.198Z,100454.00
2023-09-06T11:06:14.830Z,100454.88
2023-09-06T11:08:41.936Z,100450.91
2023-09-06T11:11:10.937Z,100447.72
2023-09-06T11:13:38.836Z,100447.31
2023-09-06T11:16:06.812Z,100445.19
2023-09-06T11:18:47.226Z,100448.25
2023-09-06T11:21:32.871Z,100437.66
2023-09-06T11:23:59.430Z,100436.97
2023-09-06T11:26:27.418Z,100431.75
2023-09-06T11:29:02.350Z,100437.84
2023-09-06T11:31:34.387Z,100429.69
2023-09-06T11:34:05.817Z,100427.31
2023-09-06T11:36:35.218Z,100423.91
2023-09-06T11:39:17.023Z,100405.75
2023-09-06T11:41:44.873Z,100413.19
2023-09-06T11:44:15.489Z,100407.09
2023-09-06T11:46:44.804Z,100404.81
2023-09-06T11:49:15.831Z,100396.63
2023-09-06T11:51:44.946Z,100404.22
2023-09-06T11:54:11.652Z,100404.28
2023-09-06T11:56:41.447Z,100396.41
2023-09-06T11:59:13.740Z,100394.66
2023-09-06T12:01:41.547Z,100367.44
2023-09-06T12:04:11.503Z,100396.31
2023-09-06T12:06:42.711Z,100387.22
2023-09-06T12:09:13.486Z,100387.91
2023-09-06T12:11:40.877Z,100378.44
2023-09-06T12:14:11.502Z,100374.34
2023-09-06T12:16:39.153Z,100372.44
2023-09-06T12:19:05.953Z,100364.88
2023-09-06T12:21:33.002Z,100373.31
2023-09-06T12:23:59.705Z,100368.66
2023-09-06T12:26:26.353Z,100373.16
2023-09-06T12:28:52.968Z,100366.75
2023-09-06T12:31:19.533Z,100353.72
2023-09-06T12:33:49.122Z,100361.72
2023-09-06T12:36:18.395Z,100348.94
2023-09-06T12:38:45.958Z,100351.00
2023-09-06T12:41:13.632Z,100352.19
2023-09-06T12:43:40.167Z,100349.50
2023-09-06T12:46:10.013Z,100347.47
2023-09-06T12:48:37.192Z,100343.53
2023-09-06T12:51:06.200Z,100342.13
2023-09-06T12:53:33.600Z,100334.72
2023-09-06T12:56:01.305Z,100329.44
2023-09-06T12:58:28.877Z,100324.88
2023-09-06T13:00:55.939Z,100323.44
2023-09-06T13:03:22.697Z,100320.56
2023-09-06T13:05:50.264Z,100314.69
2023-09-06T13:08:20.138Z,100314.38
2023-09-06T13:10:47.337Z,100318.19
2023-09-06T13:13:14.191Z,100316.63
2023-09-06T13:15:41.053Z,100315.69
2023-09-06T13:18:08.567Z,100317.66
2023-09-06T13:20:35.221Z,100316.69
2023-09-06T13:23:02.260Z,100303.56
2023-09-06T13:25:28.794Z,100305.25
2023-09-06T13:27:55.389Z,100310.22
2023-09-06T13:30:22.127Z,100300.47
2023-09-06T13:32:48.786Z,100297.03
2023-09-06T13:35:15.399Z,100297.56
2023-09-06T13:37:42.089Z,100297.13
2023-09-06T13:40:09.434Z,100295.47
2023-09-06T13:42:36.465Z,100300.19
2023-09-06T13:45:03.489Z,100292.31
2023-09-06T13:47:30.086Z,100283.38
2023-09-06T13:49:58.137Z,100285.91
2023-09-06T13:52:24.682Z,100287.66
2023-09-06T13:54:51.248Z,100278.50
2023-09-06T13:57:17.799Z,100282.38
2023-09-06T13:59:44.338Z,100277.38
2023-09-06T14:02:11.077Z,100270.97
2023-09-06T14:04:38.039Z,100265.47
2023-09-06T14:07:04.890Z,100276.38
2023-09-06T14:09:31.527Z,100269.50
2023-09-06T14:11:58.054Z,100271.72
2023-09-06T14:14:24.920Z,100271.31
2023-09-06T14:16:52.164Z,100259.72
2023-09-06T14:19:18.788Z,100269.19
2023-09-06T14:21:47.260Z,100270.13
2023-09-06T14:24:16.921Z,100262.16
2023-09-06T14:26:44.464Z,100263.53
2023-09-06T14:29:13.448Z,100257.72
2023-09-06T14:31:40.712Z,100256.69
2023-09-06T14:34:07.273Z,100258.16
2023-09-06T14:36:34.063Z,100252.09
2023-09-06T14:39:02.259Z,100249.16
2023-09-06T14:41:28.830Z,100245.31
2023-09-06T14:43:56.673Z,100254.41
2023-09-06T14:46:23.640Z,100254.19
2023-09-06T14:48:50.524Z,100255.03
2023-09-06T14:51:17.202Z,100255.41
2023-09-06T14:53:43.802Z,100251.50
2023-09-06T14:56:10.759Z,100247.38
2023-09-06T14:58:37.404Z,100249.63
2023-09-06T15:01:05.178Z,100241.38
2023-09-06T15:03:34.927Z,100241.13
2023-09-06T15:06:01.599Z,100236.72
2023-09-06T15:08:28.773Z,100245.59
2023-09-06T15:10:55.473Z,100238.72
2023-09-06T15:13:22.025Z,100240.97
2023-09-06T15:15:49.281Z,100241.31
2023-09-06T15:18:16.053Z,100238.81
2023-09-06T15:20:42.800Z,100240.25
2023-09-06T15:23:09.309Z,100234.44
2023-09-06T15:25:35.936Z,100235.84
2023-09-06T15:28:02.592Z,100227.06
2023-09-06T15:30:29.294Z,100222.06
2023-09-06T15:32:56.107Z,100242.03
2023-09-06T15:35:28.109Z,100238.72
2023-09-06T15:38:04.437Z,100244.53
2023-09-06T15:40:32.970Z,100245.41
2023-09-06T15:42:59.792Z,100239.63
2023-09-06T15:45:26.718Z,100236.88
2023-09-06T15:47:53.629Z,100238.63
2023-09-06T15:50:21.197Z,100240.03
2023-09-06T15:52:48.598Z,100235.91
2023-09-06T15:55:16.147Z,100245.88
2023-09-06T15:57:44.896Z,100243.97
2023-09-06T16:00:28.817Z,100232.38
2023-09-06T16:02:59.185Z,100227.72
2023-09-06T16:05:26.085Z,100237.69
2023-09-06T16:07:52.607Z,100239.66
2023-09-06T16:10:19.302Z,100239.16
2023-09-06T16:12:49.181Z,100238.66
2023-09-06T16:15:17.044Z,100242.59
2023-09-06T16:17:46.002Z,100242.06
2023-09-06T16:20:13.061Z,100246.22
2023-09-06T16:22:39.629Z,100250.97
2023-09-06T16:25:08.945Z,100251.28
2023-09-06T16:27:36.057Z,100251.28
2023-09-06T16:30:05.653Z,100257.09
2023-09-06T16:32:33.203Z,100252.94
2023-09-06T16:35:00.036Z,100266.19
2023-09-06T16:37:26.738Z,100256.75
2023-09-06T16:39:53.289Z,100258.66
2023-09-06T16:42:20.678Z,100259.44
2023-09-06T16:44:47.221Z,100255.78
2023-09-06T16:47:13.818Z,100261.50
2023-09-06T16:49:43.691Z,100262.50
2023-09-06T16:52:10.565Z,100270.72
2023-09-06T16:54:37.365Z,100275.25
2023-09-06T16:57:05.251Z,100266.53
2023-09-06T16:59:32.725Z,100270.78
2023-09-06T17:01:59.580Z,100266.41
2023-09-06T17:04:26.556Z,100270.31
2023-09-06T17:06:53.108Z,100274.53
2023-09-06T17:09:19.660Z,100265.72
2023-09-06T17:11:46.188Z,100268.28
2023-09-06T17:14:12.813Z,100277.19
2023-09-06T17:16:39.845Z,100273.13
2023-09-06T17:19:11.134Z,100274.09
2023-09-06T17:21:41.293Z,100277.56
2023-09-06T17:24:09.836Z,100283.59
2023-09-06T17:26:37.940Z,100285.50
2023-09-06T17:29:08.655Z,100281.53
2023-09-06T17:31:35.701Z,100286.75
2023-09-06T17:34:02.516Z,100296.41
2023-09-06T17:36:29.672Z,100293.25
2023-09-06T17:38:56.246Z,100297.78
2023-09-06T17:41:24.695Z,100295.09
2023-09-06T17:43:52.309Z,100304.78
2023-09-06T17:46:25.280Z,100314.94
2023-09-06T17:48:54.151Z,100319.00
2023-09-06T17:51:21.188Z,100317.66
2023-09-06T17:53:48.857Z,100316.53
2023-09-06T17:56:17.636Z,100310.91
2023-09-06T17:58:46.494Z,100322.31
2023-09-06T18:01:15.200Z,100326.50
2023-09-06T18:03:45.689Z,100318.53
2023-09-06T18:06:14.897Z,100341.28
2023-09-06T18:08:43.083Z,100337.63
2023-09-06T18:11:10.454Z,100341.28
2023-09-06T18:13:41.446Z,100343.75
2023-09-06T18:16:15.973Z,100348.53
2023-09-06T18:18:43.811Z,100346.94
2023-09-06T18:21:11.848Z,100355.44
2023-09-06T18:23:39.012Z,100348.13
2023-09-06T18:26:06.988Z,100353.66
2023-09-06T18:28:33.642Z,100361.94
2023-09-06T18:31:01.321Z,100358.69
2023-09-06T18:33:27.999Z,100355.41
2023-09-06T18:35:56.383Z,100355.31
2023-09-06T18:38:24.632Z,100360.84
2023-09-06T18:40:54.492Z,100359.88
2023-09-06T18:43:23.106Z,100362.69
2023-09-06T18:45:49.904Z,100368.66
2023-09-06T18:48:18.843Z,100371.41
2023-09-06T18:50:49.484Z,100377.56
2023-09-06T18:53:16.164Z,100372.34
2023-09-06T18:55:45.549Z,100377.84
2023-09-06T18:58:12.699Z,100370.38
2023-09-06T19:00:42.882Z,100362.00
2023-09-06T19:03:13.918Z,100375.47
2023-09-06T19:05:42.401Z,100378.44
2023-09-06T19:08:15.427Z,100379.94
2023-09-06T19:10:43.328Z,100382.91
2023-09-06T19:13:11.457Z,100387.13
2023-09-06T19:15:39.622Z,100389.69
2023-09-06T19:18:07.558Z,100384.25
2023-09-06T19:20:37.508Z,100349.06
2023-09-06T19:23:07.577Z,100381.75
2023-09-06T19:25:38.939Z,100391.22
2023-09-06T19:28:08.042Z,100393.13
2023-09-06T19:30:34.665Z,100391.66
2023-09-06T19:33:01.321Z,100380.38
2023-09-06T19:35:27.887Z,100391.69
2023-09-06T19:37:54.400Z,100390.03
2023-09-06T19:40:20.935Z,100391.06
2023-09-06T19:42:47.450Z,100378.31
2023-09-06T19:45:14.007Z,100387.09
2023-09-06T19:47:40.696Z,100394.38
2023-09-06T19:50:08.079Z,100391.66
2023-09-06T19:52:34.683Z,100395.22
2023-09-06T19:55:02.134Z,100396.72
2023-09-06T19:57:30.707Z,100400.66
2023-09-06T19:59:58.664Z,100395.66
2023-09-06T20:02:27.788Z,100390.41
2023-09-06T20:04:54.662Z,100390.84
2023-09-06T20:07:21.311Z,100407.19
2023-09-06T20:09:48.649Z,100402.97
2023-09-06T20:12:15.226Z,100405.03
2023-09-06T20:14:41.752Z,100413.00
2023-09-06T20:17:08.374Z,100403.13
2023-09-06T20:19:34.947Z,100400.84
2023-09-06T20:22:01.488Z,100410.47
2023-09-06T20:24:28.320Z,100411.28
2023-09-06T20:26:54.910Z,100415.47
2023-09-06T20:29:27.998Z,100410.44
2023-09-06T20:31:58.513Z,100412.53
2023-09-06T20:34:26.777Z,100422.13
2023-09-06T20:36:53.245Z,100416.03
2023-09-06T20:39:19.726Z,100409.50
2023-09-06T20:41:46.315Z,100412.00
2023-09-06T20:44:12.837Z,100410.94
2023-09-06T20:46:39.455Z,100418.06
2023-09-06T20:49:06.091Z,100413.47
2023-09-06T20:51:32.611Z,100421.00
2023-09-06T20:53:59.110Z,100415.31
2023-09-06T20:56:25.768Z,100414.88
2023-09-06T20:58:52.274Z,100412.56
2023-09-06T21:01:22.540Z,100417.19
2023-09-06T21:03:49.442Z,100410.25
2023-09-06T21:06:16.241Z,100415.63
2023-09-06T21:08:43.134Z,100410.63
2023-09-06T21:11:09.887Z,100416.91
2023-09-06T21:13:36.437Z,100417.31
2023-09-06T21:16:03.406Z,100419.81
2023-09-06T21:18:31.028Z,100426.69
2023-09-06T21:20:58.714Z,100426.44
2023-09-06T21:23:25.747Z,100425.63
2023-09-06T21:25:52.377Z,100431.25
2023-09-06T21:28:19.960Z,100429.34
2023-09-06T21:30:48.472Z,100429.75
2023-09-06T21:33:16.391Z,100423.84
2023-09-06T21:35:44.830Z,100428.00
2023-09-06T21:38:12.332Z,100436.38
2023-09-06T21:40:39.952Z,100435.06
2023-09-06T21:43:16.932Z,100433.97
2023-09-06T21:45:44.778Z,100433.53
2023-09-06T21:48:11.795Z,100424.72
2023-09-06T21:50:40.004Z,100429.91
2023-09-06T21:53:07.027Z,100430.28
2023-09-06T21:55:34.105Z,100433.78
2023-09-06T21:58:09.714Z,100419.13
2023-09-06T22:00:37.729Z,100431.50
2023-09-06T22:03:04.788Z,100431.44
2023-09-06T22:05:31.514Z,100429.69
2023-09-06T22:07:58.098Z,100433.69
2023-09-06T22:10:24.784Z,100440.22
2023-09-06T22:12:51.583Z,100436.09
2023-09-06T22:15:18.467Z,100432.28
2023-09-06T22:17:44.961Z,100433.69
2023-09-06T22:20:11.638Z,100431.50
2023-09-06T22:22:38.290Z,100436.09
2023-09-06T22:25:08.311Z,100434.16
2023-09-06T22:27:35.518Z,100430.59
2023-09-06T22:30:03.802Z,100430.59
2023-09-06T22:32:30.405Z,100428.28
2023-09-06T22:34:59.840Z,100429.94
2023-09-06T22:37:26.431Z,100433.50
2023-09-06T22:39:53.063Z,100430.16
2023-09-06T22:42:19.731Z,100433.19
2023-09-06T22:44:46.479Z,100428.53
2023-09-06T22:47:13.153Z,100436.28
2023-09-06T22:49:39.860Z,100433.78
2023-09-06T22:52:07.933Z,100431.91
2023-09-06T22:54:39.919Z,100420.41
2023-09-06T22:57:07.805Z,100426.22
2023-09-06T22:59:35.295Z,100438.13
2023-09-06T23:02:02.064Z,100433.06
2023-09-06T23:04:33.414Z,100433.59
2023-09-06T23:07:01.033Z,100419.94
2023-09-06T23:09:27.539Z,100436.56
2023-09-06T23:11:57.377Z,100432.75
2023-09-06T23:14:27.431Z,100430.69
2023-09-06T23:16:54.897Z,100431.72
2023-09-06T23:19:26.224Z,100432.38
2023-09-06T23:21:56.318Z,100435.94
2023-09-06T23:24:23.812Z,100432.75
2023-09-06T23:26:58.008Z,100425.19
2023-09-06T23:29:26.963Z,100431.81
2023-09-06T23:31:59.791Z,100422.78
2023-09-06T23:34:30.725Z,100431.31
2023-09-06T23:36:59.117Z,100428.97
2023-09-06T23:39:29.304Z,100437.28
2023-09-06T23:41:57.883Z,100435.81
2023-09-06T23:44:25.113Z,100436.16
2023-09-06T23:46:52.043Z,100435.31
2023-09-06T23:49:21.089Z,100432.16
2023-09-06T23:51:48.106Z,100430.22
2023-09-06T23:54:15.285Z,100424.78
2023-09-06T23:56:42.104Z,100429.28
2023-09-06T23:59:08.752Z,100428.63
